sensor_id;sensor_type;location;lat;lon;timestamp;P1;durP1;ratioP1;P2;durP2;ratioP2
20078;SDS011;10199;48.850;8.924;2023-11-21T00:01:26;2.97;;;0.80;;
20078;SDS011;10199;48.850;8.924;2023-11-21T00:03:54;1.80;;;0.63;;
20078;SDS011;10199;48.850;8.924;2023-11-21T00:06:22;1.33;;;1.23;;
20078;SDS011;10199;48.850;8.924;2023-11-21T00:08:50;2.63;;;1.23;;
20078;SDS011;10199;48.850;8.924;2023-11-21T00:11:18;2.17;;;0.80;;
20078;SDS011;10199;48.850;8.924;2023-11-21T00:13:46;2.67;;;0.80;;
20078;SDS011;10199;48.850;8.924;2023-11-21T00:16:14;2.00;;;1.00;;
20078;SDS011;10199;48.850;8.924;2023-11-21T00:18:44;1.10;;;0.80;;
20078;SDS011;10199;48.850;8.924;2023-11-21T00:21:13;1.93;;;1.00;;
20078;SDS011;10199;48.850;8.924;2023-11-21T00:23:41;1.43;;;0.60;;
20078;SDS011;10199;48.850;8.924;2023-11-21T00:26:09;1.70;;;0.57;;
20078;SDS011;10199;48.850;8.924;2023-11-21T00:28:38;0.83;;;0.50;;
20078;SDS011;10199;48.850;8.924;2023-11-21T00:31:06;2.33;;;0.80;;
20078;SDS011;10199;48.850;8.924;2023-11-21T00:33:34;1.33;;;0.60;;
20078;SDS011;10199;48.850;8.924;2023-11-21T00:36:04;1.57;;;0.67;;
20078;SDS011;10199;48.850;8.924;2023-11-21T00:38:36;3.70;;;0.90;;
20078;SDS011;10199;48.850;8.924;2023-11-21T00:41:06;0.70;;;0.70;;
20078;SDS011;10199;48.850;8.924;2023-11-21T00:43:34;1.57;;;0.70;;
20078;SDS011;10199;48.850;8.924;2023-11-21T00:46:03;2.60;;;0.87;;
20078;SDS011;10199;48.850;8.924;2023-11-21T00:48:32;1.17;;;0.80;;
20078;SDS011;10199;48.850;8.924;2023-11-21T00:51:00;2.73;;;0.77;;
20078;SDS011;10199;48.850;8.924;2023-11-21T00:53:29;1.70;;;0.80;;
20078;SDS011;10199;48.850;8.924;2023-11-21T00:55:57;2.37;;;1.13;;
20078;SDS011;10199;48.850;8.924;2023-11-21T00:58:25;2.70;;;1.10;;
20078;SDS011;10199;48.850;8.924;2023-11-21T01:00:54;5.63;;;1.10;;
20078;SDS011;10199;48.850;8.924;2023-11-21T01:03:22;5.20;;;1.27;;
20078;SDS011;10199;48.850;8.924;2023-11-21T01:05:50;2.77;;;1.20;;
20078;SDS011;10199;48.850;8.924;2023-11-21T01:08:18;2.23;;;1.17;;
20078;SDS011;10199;48.850;8.924;2023-11-21T01:10:48;3.00;;;1.00;;
20078;SDS011;10199;48.850;8.924;2023-11-21T01:13:16;4.73;;;1.20;;
20078;SDS011;10199;48.850;8.924;2023-11-21T01:15:45;3.13;;;1.37;;
20078;SDS011;10199;48.850;8.924;2023-11-21T01:18:13;2.13;;;1.40;;
20078;SDS011;10199;48.850;8.924;2023-11-21T01:20:41;2.27;;;1.10;;
20078;SDS011;10199;48.850;8.924;2023-11-21T01:23:09;2.50;;;1.30;;
20078;SDS011;10199;48.850;8.924;2023-11-21T01:25:37;4.37;;;1.27;;
20078;SDS011;10199;48.850;8.924;2023-11-21T01:28:06;3.20;;;1.47;;
20078;SDS011;10199;48.850;8.924;2023-11-21T01:30:34;3.70;;;1.00;;
20078;SDS011;10199;48.850;8.924;2023-11-21T01:33:02;1.83;;;1.20;;
20078;SDS011;10199;48.850;8.924;2023-11-21T01:35:30;3.63;;;1.40;;
20078;SDS011;10199;48.850;8.924;2023-11-21T01:37:58;2.07;;;1.10;;
20078;SDS011;10199;48.850;8.924;2023-11-21T01:40:26;3.83;;;1.47;;
20078;SDS011;10199;48.850;8.924;2023-11-21T01:42:56;3.90;;;1.43;;
20078;SDS011;10199;48.850;8.924;2023-11-21T01:45:26;4.63;;;1.47;;
20078;SDS011;10199;48.850;8.924;2023-11-21T01:47:55;3.47;;;1.30;;
20078;SDS011;10199;48.850;8.924;2023-11-21T01:50:25;2.13;;;1.50;;
20078;SDS011;10199;48.850;8.924;2023-11-21T01:52:53;2.60;;;1.50;;
20078;SDS011;10199;48.850;8.924;2023-11-21T01:55:22;2.40;;;1.30;;
20078;SDS011;10199;48.850;8.924;2023-11-21T01:57:52;3.77;;;1.63;;
20078;SDS011;10199;48.850;8.924;2023-11-21T02:00:22;5.03;;;1.70;;
20078;SDS011;10199;48.850;8.924;2023-11-21T02:02:52;4.27;;;1.70;;
20078;SDS011;10199;48.850;8.924;2023-11-21T02:05:20;3.77;;;1.50;;
20078;SDS011;10199;48.850;8.924;2023-11-21T02:07:49;3.43;;;1.53;;
20078;SDS011;10199;48.850;8.924;2023-11-21T02:10:19;2.13;;;1.40;;
20078;SDS011;10199;48.850;8.924;2023-11-21T02:12:49;2.10;;;1.30;;
20078;SDS011;10199;48.850;8.924;2023-11-21T02:15:17;3.57;;;1.80;;
20078;SDS011;10199;48.850;8.924;2023-11-21T02:17:48;3.73;;;1.57;;
20078;SDS011;10199;48.850;8.924;2023-11-21T02:20:19;4.90;;;2.30;;
20078;SDS011;10199;48.850;8.924;2023-11-21T02:22:52;4.13;;;1.50;;
20078;SDS011;10199;48.850;8.924;2023-11-21T02:25:24;5.40;;;1.63;;
20078;SDS011;10199;48.850;8.924;2023-11-21T02:27:54;1.83;;;1.20;;
20078;SDS011;10199;48.850;8.924;2023-11-21T02:30:22;2.43;;;1.40;;
20078;SDS011;10199;48.850;8.924;2023-11-21T02:32:51;2.93;;;1.33;;
20078;SDS011;10199;48.850;8.924;2023-11-21T02:35:20;2.37;;;1.20;;
20078;SDS011;10199;48.850;8.924;2023-11-21T02:37:49;2.47;;;1.47;;
20078;SDS011;10199;48.850;8.924;2023-11-21T02:40:19;3.53;;;1.50;;
20078;SDS011;10199;48.850;8.924;2023-11-21T02:42:48;4.20;;;1.63;;
20078;SDS011;10199;48.850;8.924;2023-11-21T02:45:18;2.30;;;1.43;;
20078;SDS011;10199;48.850;8.924;2023-11-21T02:47:47;2.83;;;1.40;;
20078;SDS011;10199;48.850;8.924;2023-11-21T02:50:16;3.80;;;1.47;;
20078;SDS011;10199;48.850;8.924;2023-11-21T02:52:45;3.20;;;1.47;;
20078;SDS011;10199;48.850;8.924;2023-11-21T02:55:14;4.27;;;1.57;;
20078;SDS011;10199;48.850;8.924;2023-11-21T02:57:43;1.97;;;1.47;;
20078;SDS011;10199;48.850;8.924;2023-11-21T03:00:11;3.07;;;1.37;;
20078;SDS011;10199;48.850;8.924;2023-11-21T03:02:41;2.60;;;1.43;;
20078;SDS011;10199;48.850;8.924;2023-11-21T03:05:10;2.60;;;1.60;;
20078;SDS011;10199;48.850;8.924;2023-11-21T03:07:38;2.53;;;1.50;;
20078;SDS011;10199;48.850;8.924;2023-11-21T03:10:07;3.47;;;1.87;;
20078;SDS011;10199;48.850;8.924;2023-11-21T03:12:37;4.40;;;1.83;;
20078;SDS011;10199;48.850;8.924;2023-11-21T03:15:07;2.53;;;1.20;;
20078;SDS011;10199;48.850;8.924;2023-11-21T03:17:36;2.03;;;1.67;;
20078;SDS011;10199;48.850;8.924;2023-11-21T03:20:05;4.37;;;1.63;;
20078;SDS011;10199;48.850;8.924;2023-11-21T03:22:37;2.47;;;1.87;;
20078;SDS011;10199;48.850;8.924;2023-11-21T03:25:05;2.57;;;1.47;;
20078;SDS011;10199;48.850;8.924;2023-11-21T03:27:37;3.13;;;1.70;;
20078;SDS011;10199;48.850;8.924;2023-11-21T03:30:08;2.17;;;1.60;;
20078;SDS011;10199;48.850;8.924;2023-11-21T03:32:37;3.60;;;1.60;;
20078;SDS011;10199;48.850;8.924;2023-11-21T03:35:05;7.03;;;1.70;;
20078;SDS011;10199;48.850;8.924;2023-11-21T03:37:34;3.13;;;1.73;;
20078;SDS011;10199;48.850;8.924;2023-11-21T03:40:02;4.60;;;1.50;;
20078;SDS011;10199;48.850;8.924;2023-11-21T03:42:31;2.73;;;1.70;;
20078;SDS011;10199;48.850;8.924;2023-11-21T03:44:59;2.53;;;1.50;;
20078;SDS011;10199;48.850;8.924;2023-11-21T03:47:29;4.27;;;1.80;;
20078;SDS011;10199;48.850;8.924;2023-11-21T03:49:57;2.83;;;1.37;;
20078;SDS011;10199;48.850;8.924;2023-11-21T03:52:25;2.97;;;1.57;;
20078;SDS011;10199;48.850;8.924;2023-11-21T03:54:53;2.60;;;1.40;;
20078;SDS011;10199;48.850;8.924;2023-11-21T03:57:21;1.47;;;1.10;;
20078;SDS011;10199;48.850;8.924;2023-11-21T03:59:50;1.80;;;1.10;;
20078;SDS011;10199;48.850;8.924;2023-11-21T04:02:18;1.77;;;0.90;;
20078;SDS011;10199;48.850;8.924;2023-11-21T04:04:48;3.47;;;1.10;;
20078;SDS011;10199;48.850;8.924;2023-11-21T04:07:16;1.80;;;1.10;;
20078;SDS011;10199;48.850;8.924;2023-11-21T04:09:44;2.63;;;1.03;;
20078;SDS011;10199;48.850;8.924;2023-11-21T04:12:12;1.20;;;0.90;;
20078;SDS011;10199;48.850;8.924;2023-11-21T04:14:40;3.83;;;1.00;;
20078;SDS011;10199;48.850;8.924;2023-11-21T04:17:08;2.63;;;1.23;;
20078;SDS011;10199;48.850;8.924;2023-11-21T04:19:37;1.30;;;0.83;;
20078;SDS011;10199;48.850;8.924;2023-11-21T04:22:06;1.50;;;1.20;;
20078;SDS011;10199;48.850;8.924;2023-11-21T04:24:34;2.20;;;1.10;;
20078;SDS011;10199;48.850;8.924;2023-11-21T04:27:02;3.50;;;1.20;;
20078;SDS011;10199;48.850;8.924;2023-11-21T04:29:30;2.27;;;1.17;;
20078;SDS011;10199;48.850;8.924;2023-11-21T04:31:58;1.00;;;0.90;;
20078;SDS011;10199;48.850;8.924;2023-11-21T04:34:26;1.30;;;1.10;;
20078;SDS011;10199;48.850;8.924;2023-11-21T04:36:56;1.80;;;1.27;;
20078;SDS011;10199;48.850;8.924;2023-11-21T04:39:25;1.13;;;1.03;;
20078;SDS011;10199;48.850;8.924;2023-11-21T04:41:53;2.60;;;1.33;;
20078;SDS011;10199;48.850;8.924;2023-11-21T04:44:22;2.70;;;1.60;;
20078;SDS011;10199;48.850;8.924;2023-11-21T04:46:50;3.40;;;1.20;;
20078;SDS011;10199;48.850;8.924;2023-11-21T04:49:18;2.53;;;1.30;;
20078;SDS011;10199;48.850;8.924;2023-11-21T04:51:46;1.77;;;1.20;;
20078;SDS011;10199;48.850;8.924;2023-11-21T04:54:14;1.43;;;1.17;;
20078;SDS011;10199;48.850;8.924;2023-11-21T04:56:43;1.40;;;1.30;;
20078;SDS011;10199;48.850;8.924;2023-11-21T04:59:11;1.57;;;1.10;;
20078;SDS011;10199;48.850;8.924;2023-11-21T05:01:39;1.83;;;0.87;;
20078;SDS011;10199;48.850;8.924;2023-11-21T05:04:07;2.33;;;1.10;;
20078;SDS011;10199;48.850;8.924;2023-11-21T05:06:36;2.03;;;1.20;;
20078;SDS011;10199;48.850;8.924;2023-11-21T05:09:04;2.63;;;1.07;;
20078;SDS011;10199;48.850;8.924;2023-11-21T05:11:32;2.80;;;1.50;;
20078;SDS011;10199;48.850;8.924;2023-11-21T05:14:02;1.27;;;1.17;;
20078;SDS011;10199;48.850;8.924;2023-11-21T05:16:30;1.93;;;1.67;;
20078;SDS011;10199;48.850;8.924;2023-11-21T05:18:58;3.33;;;1.37;;
20078;SDS011;10199;48.850;8.924;2023-11-21T05:21:27;1.63;;;1.40;;
20078;SDS011;10199;48.850;8.924;2023-11-21T05:23:58;2.17;;;1.57;;
20078;SDS011;10199;48.850;8.924;2023-11-21T05:26:26;3.70;;;1.60;;
20078;SDS011;10199;48.850;8.924;2023-11-21T05:28:54;3.93;;;1.30;;
20078;SDS011;10199;48.850;8.924;2023-11-21T05:31:23;2.20;;;1.47;;
20078;SDS011;10199;48.850;8.924;2023-11-21T05:33:51;2.90;;;1.37;;
20078;SDS011;10199;48.850;8.924;2023-11-21T05:36:19;1.77;;;1.30;;
20078;SDS011;10199;48.850;8.924;2023-11-21T05:38:47;1.43;;;1.20;;
20078;SDS011;10199;48.850;8.924;2023-11-21T05:41:15;3.23;;;1.40;;
20078;SDS011;10199;48.850;8.924;2023-11-21T05:43:43;1.43;;;1.33;;
20078;SDS011;10199;48.850;8.924;2023-11-21T05:46:12;2.80;;;1.40;;
20078;SDS011;10199;48.850;8.924;2023-11-21T05:48:42;3.53;;;1.47;;
20078;SDS011;10199;48.850;8.924;2023-11-21T05:51:10;3.07;;;2.00;;
20078;SDS011;10199;48.850;8.924;2023-11-21T05:53:39;4.10;;;1.90;;
20078;SDS011;10199;48.850;8.924;2023-11-21T05:56:07;2.37;;;2.17;;
20078;SDS011;10199;48.850;8.924;2023-11-21T05:58:35;3.90;;;2.20;;
20078;SDS011;10199;48.850;8.924;2023-11-21T06:01:05;3.83;;;2.60;;
20078;SDS011;10199;48.850;8.924;2023-11-21T06:03:34;6.60;;;3.90;;
20078;SDS011;10199;48.850;8.924;2023-11-21T06:06:03;6.43;;;3.10;;
20078;SDS011;10199;48.850;8.924;2023-11-21T06:08:32;3.77;;;3.30;;
20078;SDS011;10199;48.850;8.924;2023-11-21T06:11:00;4.30;;;3.50;;
20078;SDS011;10199;48.850;8.924;2023-11-21T06:13:28;4.20;;;3.73;;
20078;SDS011;10199;48.850;8.924;2023-11-21T06:15:57;5.40;;;3.40;;
20078;SDS011;10199;48.850;8.924;2023-11-21T06:18:25;5.23;;;3.37;;
20078;SDS011;10199;48.850;8.924;2023-11-21T06:20:53;5.67;;;3.90;;
20078;SDS011;10199;48.850;8.924;2023-11-21T06:23:22;5.03;;;3.30;;
20078;SDS011;10199;48.850;8.924;2023-11-21T06:25:50;7.33;;;3.43;;
20078;SDS011;10199;48.850;8.924;2023-11-21T06:28:19;3.50;;;3.20;;
20078;SDS011;10199;48.850;8.924;2023-11-21T06:30:47;3.83;;;2.70;;
20078;SDS011;10199;48.850;8.924;2023-11-21T06:33:15;3.87;;;2.67;;
20078;SDS011;10199;48.850;8.924;2023-11-21T06:35:43;4.07;;;2.80;;
20078;SDS011;10199;48.850;8.924;2023-11-21T06:38:12;3.03;;;2.53;;
20078;SDS011;10199;48.850;8.924;2023-11-21T06:40:41;3.57;;;2.10;;
20078;SDS011;10199;48.850;8.924;2023-11-21T06:43:09;3.43;;;2.67;;
20078;SDS011;10199;48.850;8.924;2023-11-21T06:45:37;4.43;;;2.87;;
20078;SDS011;10199;48.850;8.924;2023-11-21T06:48:05;4.80;;;4.40;;
20078;SDS011;10199;48.850;8.924;2023-11-21T06:50:33;3.97;;;3.40;;
20078;SDS011;10199;48.850;8.924;2023-11-21T06:53:01;4.17;;;3.50;;
20078;SDS011;10199;48.850;8.924;2023-11-21T06:55:33;4.90;;;4.30;;
20078;SDS011;10199;48.850;8.924;2023-11-21T06:58:03;7.03;;;5.03;;
20078;SDS011;10199;48.850;8.924;2023-11-21T07:00:31;7.23;;;4.93;;
20078;SDS011;10199;48.850;8.924;2023-11-21T07:03:00;5.13;;;4.67;;
20078;SDS011;10199;48.850;8.924;2023-11-21T07:05:30;5.63;;;4.70;;
20078;SDS011;10199;48.850;8.924;2023-11-21T07:07:58;6.63;;;5.40;;
20078;SDS011;10199;48.850;8.924;2023-11-21T07:10:30;5.07;;;3.90;;
20078;SDS011;10199;48.850;8.924;2023-11-21T07:12:59;6.03;;;3.40;;
20078;SDS011;10199;48.850;8.924;2023-11-21T07:15:29;5.30;;;3.53;;
20078;SDS011;10199;48.850;8.924;2023-11-21T07:17:57;8.30;;;7.23;;
20078;SDS011;10199;48.850;8.924;2023-11-21T07:20:25;12.83;;;10.77;;
20078;SDS011;10199;48.850;8.924;2023-11-21T07:22:53;7.37;;;5.27;;
20078;SDS011;10199;48.850;8.924;2023-11-21T07:25:22;3.93;;;3.00;;
20078;SDS011;10199;48.850;8.924;2023-11-21T07:27:50;3.87;;;2.90;;
20078;SDS011;10199;48.850;8.924;2023-11-21T07:30:19;3.63;;;2.70;;
20078;SDS011;10199;48.850;8.924;2023-11-21T07:32:50;2.93;;;2.60;;
20078;SDS011;10199;48.850;8.924;2023-11-21T07:35:18;2.57;;;2.37;;
20078;SDS011;10199;48.850;8.924;2023-11-21T07:37:46;4.53;;;2.40;;
20078;SDS011;10199;48.850;8.924;2023-11-21T07:40:15;3.13;;;2.60;;
20078;SDS011;10199;48.850;8.924;2023-11-21T07:42:44;2.57;;;2.37;;
20078;SDS011;10199;48.850;8.924;2023-11-21T07:45:12;2.90;;;2.40;;
20078;SDS011;10199;48.850;8.924;2023-11-21T07:47:41;7.80;;;5.37;;
20078;SDS011;10199;48.850;8.924;2023-11-21T07:50:11;7.47;;;6.13;;
20078;SDS011;10199;48.850;8.924;2023-11-21T07:52:40;9.63;;;7.60;;
20078;SDS011;10199;48.850;8.924;2023-11-21T07:55:08;12.17;;;9.70;;
20078;SDS011;10199;48.850;8.924;2023-11-21T07:57:36;15.33;;;13.53;;
20078;SDS011;10199;48.850;8.924;2023-11-21T08:00:05;12.27;;;11.10;;
20078;SDS011;10199;48.850;8.924;2023-11-21T08:02:38;12.17;;;10.97;;
20078;SDS011;10199;48.850;8.924;2023-11-21T08:05:08;9.93;;;8.60;;
20078;SDS011;10199;48.850;8.924;2023-11-21T08:07:40;9.33;;;8.43;;
20078;SDS011;10199;48.850;8.924;2023-11-21T08:10:08;12.03;;;10.73;;
20078;SDS011;10199;48.850;8.924;2023-11-21T08:12:38;10.93;;;9.83;;
20078;SDS011;10199;48.850;8.924;2023-11-21T08:15:06;28.23;;;24.97;;
20078;SDS011;10199;48.850;8.924;2023-11-21T08:17:35;26.50;;;23.57;;
20078;SDS011;10199;48.850;8.924;2023-11-21T08:20:03;17.90;;;16.10;;
20078;SDS011;10199;48.850;8.924;2023-11-21T08:22:32;10.73;;;8.10;;
20078;SDS011;10199;48.850;8.924;2023-11-21T08:25:02;12.07;;;10.77;;
20078;SDS011;10199;48.850;8.924;2023-11-21T08:27:31;23.87;;;16.97;;
20078;SDS011;10199;48.850;8.924;2023-11-21T08:29:59;24.73;;;18.17;;
20078;SDS011;10199;48.850;8.924;2023-11-21T08:32:28;22.07;;;16.33;;
20078;SDS011;10199;48.850;8.924;2023-11-21T08:34:57;16.23;;;13.63;;
20078;SDS011;10199;48.850;8.924;2023-11-21T08:37:25;17.97;;;15.87;;
20078;SDS011;10199;48.850;8.924;2023-11-21T08:39:53;13.87;;;10.63;;
20078;SDS011;10199;48.850;8.924;2023-11-21T08:42:23;12.97;;;8.60;;
20078;SDS011;10199;48.850;8.924;2023-11-21T08:44:51;6.93;;;6.20;;
20078;SDS011;10199;48.850;8.924;2023-11-21T08:47:19;6.50;;;5.90;;
20078;SDS011;10199;48.850;8.924;2023-11-21T08:49:47;5.00;;;4.50;;
20078;SDS011;10199;48.850;8.924;2023-11-21T08:52:15;10.33;;;9.23;;
20078;SDS011;10199;48.850;8.924;2023-11-21T08:54:44;8.10;;;6.00;;
20078;SDS011;10199;48.850;8.924;2023-11-21T08:57:12;5.60;;;5.07;;
20078;SDS011;10199;48.850;8.924;2023-11-21T08:59:41;7.03;;;5.23;;
20078;SDS011;10199;48.850;8.924;2023-11-21T09:02:09;5.83;;;4.63;;
20078;SDS011;10199;48.850;8.924;2023-11-21T09:04:38;8.13;;;5.00;;
20078;SDS011;10199;48.850;8.924;2023-11-21T09:07:06;8.03;;;4.67;;
20078;SDS011;10199;48.850;8.924;2023-11-21T09:09:35;6.93;;;4.70;;
20078;SDS011;10199;48.850;8.924;2023-11-21T09:12:03;8.03;;;4.93;;
20078;SDS011;10199;48.850;8.924;2023-11-21T09:14:31;5.13;;;4.03;;
20078;SDS011;10199;48.850;8.924;2023-11-21T09:17:00;4.77;;;4.27;;
20078;SDS011;10199;48.850;8.924;2023-11-21T09:19:29;7.00;;;4.60;;
20078;SDS011;10199;48.850;8.924;2023-11-21T09:21:57;6.47;;;4.17;;
20078;SDS011;10199;48.850;8.924;2023-11-21T09:24:25;7.10;;;5.57;;
20078;SDS011;10199;48.850;8.924;2023-11-21T09:26:53;6.77;;;5.70;;
20078;SDS011;10199;48.850;8.924;2023-11-21T09:29:21;7.23;;;5.97;;
20078;SDS011;10199;48.850;8.924;2023-11-21T09:31:49;7.30;;;6.50;;
20078;SDS011;10199;48.850;8.924;2023-11-21T09:34:19;8.27;;;6.90;;
20078;SDS011;10199;48.850;8.924;2023-11-21T09:36:47;8.20;;;7.00;;
20078;SDS011;10199;48.850;8.924;2023-11-21T09:39:15;10.17;;;8.07;;
20078;SDS011;10199;48.850;8.924;2023-11-21T09:41:46;7.10;;;5.33;;
20078;SDS011;10199;48.850;8.924;2023-11-21T09:44:18;6.00;;;5.40;;
20078;SDS011;10199;48.850;8.924;2023-11-21T09:46:51;6.80;;;4.60;;
20078;SDS011;10199;48.850;8.924;2023-11-21T09:49:23;8.30;;;5.47;;
20078;SDS011;10199;48.850;8.924;2023-11-21T09:51:53;6.63;;;5.20;;
20078;SDS011;10199;48.850;8.924;2023-11-21T09:54:23;6.67;;;4.70;;
20078;SDS011;10199;48.850;8.924;2023-11-21T09:56:53;8.13;;;5.97;;
20078;SDS011;10199;48.850;8.924;2023-11-21T09:59:21;3.97;;;3.60;;
20078;SDS011;10199;48.850;8.924;2023-11-21T10:01:49;4.17;;;3.40;;
20078;SDS011;10199;48.850;8.924;2023-11-21T10:04:17;2.00;;;1.80;;
20078;SDS011;10199;48.850;8.924;2023-11-21T10:06:49;3.80;;;1.83;;
20078;SDS011;10199;48.850;8.924;2023-11-21T10:09:19;3.80;;;1.50;;
20078;SDS011;10199;48.850;8.924;2023-11-21T10:11:48;1.23;;;1.13;;
20078;SDS011;10199;48.850;8.924;2023-11-21T10:14:18;1.10;;;1.00;;
20078;SDS011;10199;48.850;8.924;2023-11-21T10:16:49;1.30;;;0.70;;
20078;SDS011;10199;48.850;8.924;2023-11-21T10:19:17;2.10;;;0.70;;
20078;SDS011;10199;48.850;8.924;2023-11-21T10:21:47;0.73;;;0.70;;
20078;SDS011;10199;48.850;8.924;2023-11-21T10:24:16;0.67;;;0.67;;
20078;SDS011;10199;48.850;8.924;2023-11-21T10:26:45;0.93;;;0.87;;
20078;SDS011;10199;48.850;8.924;2023-11-21T10:29:16;0.97;;;0.67;;
20078;SDS011;10199;48.850;8.924;2023-11-21T10:31:45;1.10;;;1.00;;
20078;SDS011;10199;48.850;8.924;2023-11-21T10:34:13;1.60;;;0.90;;
20078;SDS011;10199;48.850;8.924;2023-11-21T10:36:42;0.80;;;0.80;;
20078;SDS011;10199;48.850;8.924;2023-11-21T10:39:13;1.37;;;0.93;;
20078;SDS011;10199;48.850;8.924;2023-11-21T10:41:45;1.50;;;1.40;;
20078;SDS011;10199;48.850;8.924;2023-11-21T10:44:13;1.40;;;0.93;;
20078;SDS011;10199;48.850;8.924;2023-11-21T10:46:46;2.00;;;1.33;;
20078;SDS011;10199;48.850;8.924;2023-11-21T10:49:17;1.43;;;1.30;;
20078;SDS011;10199;48.850;8.924;2023-11-21T10:51:46;1.73;;;1.10;;
20078;SDS011;10199;48.850;8.924;2023-11-21T10:54:17;1.57;;;1.47;;
20078;SDS011;10199;48.850;8.924;2023-11-21T10:56:48;3.00;;;2.70;;
20078;SDS011;10199;48.850;8.924;2023-11-21T10:59:18;2.73;;;2.50;;
20078;SDS011;10199;48.850;8.924;2023-11-21T11:01:47;2.77;;;2.03;;
20078;SDS011;10199;48.850;8.924;2023-11-21T11:04:18;2.10;;;1.90;;
20078;SDS011;10199;48.850;8.924;2023-11-21T11:06:49;2.67;;;2.47;;
20078;SDS011;10199;48.850;8.924;2023-11-21T11:09:21;1.97;;;1.80;;
20078;SDS011;10199;48.850;8.924;2023-11-21T11:11:52;2.37;;;2.17;;
20078;SDS011;10199;48.850;8.924;2023-11-21T11:14:20;2.00;;;1.87;;
20078;SDS011;10199;48.850;8.924;2023-11-21T11:16:53;3.57;;;3.10;;
20078;SDS011;10199;48.850;8.924;2023-11-21T11:19:23;4.00;;;3.17;;
20078;SDS011;10199;48.850;8.924;2023-11-21T11:21:53;4.97;;;3.67;;
20078;SDS011;10199;48.850;8.924;2023-11-21T11:27:51;5.20;;;4.20;;
20078;SDS011;10199;48.850;8.924;2023-11-21T11:30:28;5.23;;;4.53;;
20078;SDS011;10199;48.850;8.924;2023-11-21T11:33:09;6.57;;;5.17;;
20078;SDS011;10199;48.850;8.924;2023-11-21T11:35:47;5.63;;;5.10;;
20078;SDS011;10199;48.850;8.924;2023-11-21T11:38:21;6.27;;;5.40;;
20078;SDS011;10199;48.850;8.924;2023-11-21T11:40:52;4.90;;;4.40;;
20078;SDS011;10199;48.850;8.924;2023-11-21T11:43:26;5.57;;;4.90;;
20078;SDS011;10199;48.850;8.924;2023-11-21T11:45:55;5.70;;;5.17;;
20078;SDS011;10199;48.850;8.924;2023-11-21T11:48:25;6.07;;;5.50;;
20078;SDS011;10199;48.850;8.924;2023-11-21T11:51:00;5.33;;;4.83;;
20078;SDS011;10199;48.850;8.924;2023-11-21T11:53:35;6.33;;;5.53;;
20078;SDS011;10199;48.850;8.924;2023-11-21T11:56:21;6.83;;;6.23;;
20078;SDS011;10199;48.850;8.924;2023-11-21T11:58:54;7.07;;;5.60;;
20078;SDS011;10199;48.850;8.924;2023-11-21T12:01:24;7.23;;;5.97;;
20078;SDS011;10199;48.850;8.924;2023-11-21T12:07:01;6.00;;;5.27;;
20078;SDS011;10199;48.850;8.924;2023-11-21T12:09:32;6.70;;;6.00;;
20078;SDS011;10199;48.850;8.924;2023-11-21T12:12:00;6.27;;;5.67;;
20078;SDS011;10199;48.850;8.924;2023-11-21T12:14:31;6.53;;;5.80;;
20078;SDS011;10199;48.850;8.924;2023-11-21T12:17:00;7.27;;;6.20;;
20078;SDS011;10199;48.850;8.924;2023-11-21T12:19:29;7.53;;;5.83;;
20078;SDS011;10199;48.850;8.924;2023-11-21T12:21:57;6.90;;;6.20;;
20078;SDS011;10199;48.850;8.924;2023-11-21T12:24:26;6.33;;;5.53;;
20078;SDS011;10199;48.850;8.924;2023-11-21T12:26:56;6.17;;;5.50;;
20078;SDS011;10199;48.850;8.924;2023-11-21T12:29:24;6.80;;;6.10;;
20078;SDS011;10199;48.850;8.924;2023-11-21T12:31:53;8.37;;;7.27;;
20078;SDS011;10199;48.850;8.924;2023-11-21T12:34:23;8.83;;;6.53;;
20078;SDS011;10199;48.850;8.924;2023-11-21T12:36:51;7.43;;;6.50;;
20078;SDS011;10199;48.850;8.924;2023-11-21T12:39:21;9.20;;;7.97;;
20078;SDS011;10199;48.850;8.924;2023-11-21T12:41:50;7.63;;;6.83;;
20078;SDS011;10199;48.850;8.924;2023-11-21T12:44:19;8.13;;;7.33;;
20078;SDS011;10199;48.850;8.924;2023-11-21T12:46:49;7.53;;;6.70;;
20078;SDS011;10199;48.850;8.924;2023-11-21T12:49:20;5.23;;;4.73;;
20078;SDS011;10199;48.850;8.924;2023-11-21T12:51:48;7.30;;;5.60;;
20078;SDS011;10199;48.850;8.924;2023-11-21T12:54:17;6.00;;;5.20;;
20078;SDS011;10199;48.850;8.924;2023-11-21T12:56:46;6.30;;;5.30;;
20078;SDS011;10199;48.850;8.924;2023-11-21T12:59:15;4.37;;;3.77;;
20078;SDS011;10199;48.850;8.924;2023-11-21T13:01:44;5.17;;;4.23;;
20078;SDS011;10199;48.850;8.924;2023-11-21T13:04:13;4.00;;;3.60;;
20078;SDS011;10199;48.850;8.924;2023-11-21T13:06:42;4.83;;;3.30;;
20078;SDS011;10199;48.850;8.924;2023-11-21T13:09:11;5.40;;;4.13;;
20078;SDS011;10199;48.850;8.924;2023-11-21T13:11:44;4.33;;;3.93;;
20078;SDS011;10199;48.850;8.924;2023-11-21T13:14:12;4.07;;;3.73;;
20078;SDS011;10199;48.850;8.924;2023-11-21T13:16:41;4.50;;;3.73;;
20078;SDS011;10199;48.850;8.924;2023-11-21T13:19:12;3.57;;;3.27;;
20078;SDS011;10199;48.850;8.924;2023-11-21T13:21:41;3.50;;;3.20;;
20078;SDS011;10199;48.850;8.924;2023-11-21T13:24:10;4.20;;;3.40;;
20078;SDS011;10199;48.850;8.924;2023-11-21T13:26:38;5.57;;;4.40;;
20078;SDS011;10199;48.850;8.924;2023-11-21T13:29:07;3.40;;;2.97;;
20078;SDS011;10199;48.850;8.924;2023-11-21T13:31:35;3.33;;;3.03;;
20078;SDS011;10199;48.850;8.924;2023-11-21T13:34:05;3.10;;;2.63;;
20078;SDS011;10199;48.850;8.924;2023-11-21T13:36:35;4.37;;;3.20;;
20078;SDS011;10199;48.850;8.924;2023-11-21T13:39:04;3.90;;;3.30;;
20078;SDS011;10199;48.850;8.924;2023-11-21T13:41:34;4.10;;;3.47;;
20078;SDS011;10199;48.850;8.924;2023-11-21T13:44:05;3.27;;;2.97;;
20078;SDS011;10199;48.850;8.924;2023-11-21T13:46:42;3.13;;;2.83;;
20078;SDS011;10199;48.850;8.924;2023-11-21T13:49:12;5.17;;;3.83;;
20078;SDS011;10199;48.850;8.924;2023-11-21T13:51:42;3.00;;;2.53;;
20078;SDS011;10199;48.850;8.924;2023-11-21T13:54:13;3.23;;;2.93;;
20078;SDS011;10199;48.850;8.924;2023-11-21T13:56:41;3.67;;;3.00;;
20078;SDS011;10199;48.850;8.924;2023-11-21T13:59:11;3.67;;;2.87;;
20078;SDS011;10199;48.850;8.924;2023-11-21T14:01:47;3.07;;;2.77;;
20078;SDS011;10199;48.850;8.924;2023-11-21T14:04:22;3.13;;;2.83;;
20078;SDS011;10199;48.850;8.924;2023-11-21T14:07:06;4.03;;;2.93;;
20078;SDS011;10199;48.850;8.924;2023-11-21T14:09:50;4.77;;;4.30;;
20078;SDS011;10199;48.850;8.924;2023-11-21T14:12:19;5.10;;;4.60;;
20078;SDS011;10199;48.850;8.924;2023-11-21T14:14:48;3.60;;;2.90;;
20078;SDS011;10199;48.850;8.924;2023-11-21T14:17:16;2.77;;;2.57;;
20078;SDS011;10199;48.850;8.924;2023-11-21T14:19:44;2.87;;;2.67;;
20078;SDS011;10199;48.850;8.924;2023-11-21T14:22:12;3.70;;;2.27;;
20078;SDS011;10199;48.850;8.924;2023-11-21T14:24:40;2.20;;;2.00;;
20078;SDS011;10199;48.850;8.924;2023-11-21T14:27:12;2.87;;;2.00;;
20078;SDS011;10199;48.850;8.924;2023-11-21T14:29:41;2.30;;;2.10;;
20078;SDS011;10199;48.850;8.924;2023-11-21T14:32:11;2.37;;;2.00;;
20078;SDS011;10199;48.850;8.924;2023-11-21T14:34:40;2.10;;;1.90;;
20078;SDS011;10199;48.850;8.924;2023-11-21T14:37:12;2.27;;;1.60;;
20078;SDS011;10199;48.850;8.924;2023-11-21T14:39:40;1.93;;;1.83;;
20078;SDS011;10199;48.850;8.924;2023-11-21T14:42:12;2.13;;;2.00;;
20078;SDS011;10199;48.850;8.924;2023-11-21T14:44:42;1.90;;;1.73;;
20078;SDS011;10199;48.850;8.924;2023-11-21T14:47:10;3.30;;;2.20;;
20078;SDS011;10199;48.850;8.924;2023-11-21T14:49:42;3.17;;;2.87;;
20078;SDS011;10199;48.850;8.924;2023-11-21T14:52:20;2.33;;;2.00;;
20078;SDS011;10199;48.850;8.924;2023-11-21T14:55:00;3.00;;;2.70;;
20078;SDS011;10199;48.850;8.924;2023-11-21T14:57:43;3.00;;;2.57;;
20078;SDS011;10199;48.850;8.924;2023-11-21T15:00:16;2.70;;;2.50;;
20078;SDS011;10199;48.850;8.924;2023-11-21T15:03:04;3.07;;;2.77;;
20078;SDS011;10199;48.850;8.924;2023-11-21T15:05:33;3.40;;;3.10;;